Purcell, OK

1:50 PM CDT on September 04, 2015 (GMT -0500)
NonFedAWOS | | Change Station
CLOSE
Current Station
Personal Weather Station
Location: Lexington, OK
Elevation: 1086 ft
Nearby Weather Stations

Elev 1086 ft 35.03 °N, 97.23 °W | Updated 55 minutes ago

Partly Cloudy
Partly Cloudy
90 °F
Feels Like 96 °F
N
13
Wind Variable Wind from South
Gusts 21.0 mph

Today
High -- | Low -- °F
--% Chance of Precip.
Yesterday
High -- | Low -- °F
Precip. -- in
7:04 AM 7:52 PM
Waning Gibbous, 57% visible
Pressure 29.98 in
Visibility 10.0 miles
Clouds Scattered Clouds 5000 ft
Scattered Clouds 8000 ft
Heat Index 96 °F
Dew Point 70 °F
Humidity 52%
Rainfall in
Snow Depth Not available.
UV 8 out of 12
Pollen 10.40 out of 12
Air Quality Not available.
Flu Activity Not available.
METAR KOUN 041835Z AUTO 18009KT 10SM SCT050 SCT080 32/21 A2998 RMK AO2
Pressure 29.98 in
Visibility 10.0 miles
Clouds Scattered Clouds 5000 ft
Scattered Clouds 8000 ft
Heat Index 96 °F
Dew Point 70 °F
Humidity 52%
Rainfall in
Snow Depth Not available.
UV 8 out of 12
Pollen 10.40 out of 12
Air Quality Not available.
Flu Activity Not available.
METAR KOUN 041835Z AUTO 18009KT 10SM SCT050 SCT080 32/21 A2998 RMK AO2

10-Day Weather Forecast

×

Almanac

Astronomy

Sep. 04, 2015 Rise Set
Actual Time
Civil Twilight
Nautical Twilight
Astronomical Twilight
Moon
Length of Visible Light
Length of Day
Tomorrow will be .
, % of the Moon is Illuminated

Today's Extremes

State Highs State Lows

Community

WunderPhotos

Upload Photos

1,852,262 photos uploaded!

WunderBlogs® & News

Nearby

Air Quality

  Air Quality AQ Index Pollutant
Not available.

Snow Depth

Station Depth Elevation

Earthquake Activity

City Distance Mag. Time & Date
Minimum magnitude displayed is 2.5.

Coastal Water Temperatures

Place Temperature

Stations

Nearby Weather Stations

Station Location Temp. Windchill Dew Point Humidity Wind Precip. Elev Updated Type